sensor_id;sensor_type;location;lat;lon;timestamp;temperature;humidity
29855;DHT22;16733;48.738;9.106;2022-11-20T00:01:07;5.50;99.90
29855;DHT22;16733;48.738;9.106;2022-11-20T00:03:33;5.50;99.90
29855;DHT22;16733;48.738;9.106;2022-11-20T00:06:04;5.50;99.90
29855;DHT22;16733;48.738;9.106;2022-11-20T00:08:30;5.50;99.90
29855;DHT22;16733;48.738;9.106;2022-11-20T00:10:56;5.50;99.90
29855;DHT22;16733;48.738;9.106;2022-11-20T00:13:22;5.50;99.90
29855;DHT22;16733;48.738;9.106;2022-11-20T00:15:48;5.50;99.90
29855;DHT22;16733;48.738;9.106;2022-11-20T00:18:13;5.50;99.90
29855;DHT22;16733;48.738;9.106;2022-11-20T00:20:39;5.40;99.90
29855;DHT22;16733;48.738;9.106;2022-11-20T00:23:05;5.40;99.90
29855;DHT22;16733;48.738;9.106;2022-11-20T00:25:33;5.40;99.90
29855;DHT22;16733;48.738;9.106;2022-11-20T00:27:59;5.50;99.90
29855;DHT22;16733;48.738;9.106;2022-11-20T00:30:25;5.50;99.90
29855;DHT22;16733;48.738;9.106;2022-11-20T00:32:50;5.50;99.90
29855;DHT22;16733;48.738;9.106;2022-11-20T00:35:16;5.50;99.90
29855;DHT22;16733;48.738;9.106;2022-11-20T00:37:42;5.50;99.90
29855;DHT22;16733;48.738;9.106;2022-11-20T00:40:07;5.50;99.90
29855;DHT22;16733;48.738;9.106;2022-11-20T00:42:33;5.50;99.90
29855;DHT22;16733;48.738;9.106;2022-11-20T00:44:59;5.50;99.90
29855;DHT22;16733;48.738;9.106;2022-11-20T00:47:24;5.50;99.90
29855;DHT22;16733;48.738;9.106;2022-11-20T00:49:50;5.50;99.90
29855;DHT22;16733;48.738;9.106;2022-11-20T00:52:15;5.40;99.90
29855;DHT22;16733;48.738;9.106;2022-11-20T00:54:41;5.50;99.90
29855;DHT22;16733;48.738;9.106;2022-11-20T00:57:07;5.50;99.90
29855;DHT22;16733;48.738;9.106;2022-11-20T00:59:32;5.50;99.90
29855;DHT22;16733;48.738;9.106;2022-11-20T01:01:58;5.40;99.90
29855;DHT22;16733;48.738;9.106;2022-11-20T01:04:23;5.40;99.90
29855;DHT22;16733;48.738;9.106;2022-11-20T01:06:49;5.40;99.90
29855;DHT22;16733;48.738;9.106;2022-11-20T01:09:14;5.40;99.90
29855;DHT22;16733;48.738;9.106;2022-11-20T01:11:43;5.40;99.90
29855;DHT22;16733;48.738;9.106;2022-11-20T01:14:15;5.30;99.90
29855;DHT22;16733;48.738;9.106;2022-11-20T01:16:43;5.30;99.90
29855;DHT22;16733;48.738;9.106;2022-11-20T01:19:16;5.30;99.90
29855;DHT22;16733;48.738;9.106;2022-11-20T01:21:43;5.20;99.90
29855;DHT22;16733;48.738;9.106;2022-11-20T01:24:14;5.20;99.90
29855;DHT22;16733;48.738;9.106;2022-11-20T01:26:42;5.20;99.90
29855;DHT22;16733;48.738;9.106;2022-11-20T01:29:13;5.10;99.90
29855;DHT22;16733;48.738;9.106;2022-11-20T01:31:39;5.10;99.90
29855;DHT22;16733;48.738;9.106;2022-11-20T01:34:15;5.00;99.90
29855;DHT22;16733;48.738;9.106;2022-11-20T01:36:42;5.00;99.90
29855;DHT22;16733;48.738;9.106;2022-11-20T01:39:14;5.00;99.90
29855;DHT22;16733;48.738;9.106;2022-11-20T01:41:40;5.00;99.90
29855;DHT22;16733;48.738;9.106;2022-11-20T01:44:46;4.90;99.90
29855;DHT22;16733;48.738;9.106;2022-11-20T01:47:14;4.90;99.90
29855;DHT22;16733;48.738;9.106;2022-11-20T01:49:45;4.90;99.90
29855;DHT22;16733;48.738;9.106;2022-11-20T01:52:19;4.90;99.90
29855;DHT22;16733;48.738;9.106;2022-11-20T01:54:52;4.80;99.90
29855;DHT22;16733;48.738;9.106;2022-11-20T01:57:20;4.80;99.90
29855;DHT22;16733;48.738;9.106;2022-11-20T02:00:02;4.80;99.90
29855;DHT22;16733;48.738;9.106;2022-11-20T02:02:31;4.80;99.90
29855;DHT22;16733;48.738;9.106;2022-11-20T02:05:04;4.80;99.90
29855;DHT22;16733;48.738;9.106;2022-11-20T02:07:33;4.80;99.90
29855;DHT22;16733;48.738;9.106;2022-11-20T02:09:58;4.70;99.90
29855;DHT22;16733;48.738;9.106;2022-11-20T02:12:24;4.70;99.90
29855;DHT22;16733;48.738;9.106;2022-11-20T02:15:08;4.70;99.90
29855;DHT22;16733;48.738;9.106;2022-11-20T02:17:34;4.70;99.90
29855;DHT22;16733;48.738;9.106;2022-11-20T02:20:00;4.70;99.90
29855;DHT22;16733;48.738;9.106;2022-11-20T02:22:35;4.80;99.90
29855;DHT22;16733;48.738;9.106;2022-11-20T02:25:04;4.80;99.90
29855;DHT22;16733;48.738;9.106;2022-11-20T02:27:31;4.70;99.90
29855;DHT22;16733;48.738;9.106;2022-11-20T02:30:00;4.80;99.90
29855;DHT22;16733;48.738;9.106;2022-11-20T02:32:34;4.80;99.90
29855;DHT22;16733;48.738;9.106;2022-11-20T02:37:35;4.80;99.90
29855;DHT22;16733;48.738;9.106;2022-11-20T02:40:02;4.80;99.90
29855;DHT22;16733;48.738;9.106;2022-11-20T02:42:27;4.80;99.90
29855;DHT22;16733;48.738;9.106;2022-11-20T02:44:53;4.80;99.90
29855;DHT22;16733;48.738;9.106;2022-11-20T02:47:18;4.90;99.90
29855;DHT22;16733;48.738;9.106;2022-11-20T02:49:44;4.90;99.90
29855;DHT22;16733;48.738;9.106;2022-11-20T02:52:09;4.90;99.90
29855;DHT22;16733;48.738;9.106;2022-11-20T02:54:35;5.00;99.90
29855;DHT22;16733;48.738;9.106;2022-11-20T02:57:01;5.00;99.90
29855;DHT22;16733;48.738;9.106;2022-11-20T02:59:26;5.00;99.90
29855;DHT22;16733;48.738;9.106;2022-11-20T03:01:52;5.10;99.90
29855;DHT22;16733;48.738;9.106;2022-11-20T03:04:17;5.00;99.90
29855;DHT22;16733;48.738;9.106;2022-11-20T03:06:43;5.10;99.90
29855;DHT22;16733;48.738;9.106;2022-11-20T03:09:08;5.10;99.90
29855;DHT22;16733;48.738;9.106;2022-11-20T03:11:34;5.10;99.90
29855;DHT22;16733;48.738;9.106;2022-11-20T03:14:04;5.10;99.90
29855;DHT22;16733;48.738;9.106;2022-11-20T03:16:30;5.20;99.90
29855;DHT22;16733;48.738;9.106;2022-11-20T03:18:56;5.10;99.90
29855;DHT22;16733;48.738;9.106;2022-11-20T03:21:22;5.20;99.90
29855;DHT22;16733;48.738;9.106;2022-11-20T03:23:48;5.10;99.90
29855;DHT22;16733;48.738;9.106;2022-11-20T03:26:19;5.10;99.90
29855;DHT22;16733;48.738;9.106;2022-11-20T03:28:50;5.10;99.90
29855;DHT22;16733;48.738;9.106;2022-11-20T03:31:17;5.10;99.90
29855;DHT22;16733;48.738;9.106;2022-11-20T03:33:43;5.10;99.90
29855;DHT22;16733;48.738;9.106;2022-11-20T03:36:11;5.10;99.90
29855;DHT22;16733;48.738;9.106;2022-11-20T03:38:38;5.10;99.90
29855;DHT22;16733;48.738;9.106;2022-11-20T03:41:06;5.00;99.90
29855;DHT22;16733;48.738;9.106;2022-11-20T03:43:32;5.00;99.90
29855;DHT22;16733;48.738;9.106;2022-11-20T03:45:58;5.00;99.90
29855;DHT22;16733;48.738;9.106;2022-11-20T03:48:24;4.90;99.90
29855;DHT22;16733;48.738;9.106;2022-11-20T03:50:51;4.80;99.90
29855;DHT22;16733;48.738;9.106;2022-11-20T03:53:16;4.80;99.90
29855;DHT22;16733;48.738;9.106;2022-11-20T03:55:42;4.80;99.90
29855;DHT22;16733;48.738;9.106;2022-11-20T03:58:09;4.70;99.90
29855;DHT22;16733;48.738;9.106;2022-11-20T04:00:35;4.60;99.90
29855;DHT22;16733;48.738;9.106;2022-11-20T04:03:01;4.60;99.90
29855;DHT22;16733;48.738;9.106;2022-11-20T04:05:27;4.60;99.90
29855;DHT22;16733;48.738;9.106;2022-11-20T04:07:53;4.60;99.90
29855;DHT22;16733;48.738;9.106;2022-11-20T04:10:18;4.60;99.90
29855;DHT22;16733;48.738;9.106;2022-11-20T04:12:44;4.60;99.90
29855;DHT22;16733;48.738;9.106;2022-11-20T04:15:10;4.60;99.90
29855;DHT22;16733;48.738;9.106;2022-11-20T04:17:35;4.60;99.90
29855;DHT22;16733;48.738;9.106;2022-11-20T04:20:01;4.50;99.90
29855;DHT22;16733;48.738;9.106;2022-11-20T04:22:27;4.50;99.90
29855;DHT22;16733;48.738;9.106;2022-11-20T04:24:52;4.50;99.90
29855;DHT22;16733;48.738;9.106;2022-11-20T04:27:18;4.50;99.90
29855;DHT22;16733;48.738;9.106;2022-11-20T04:29:44;4.50;99.90
29855;DHT22;16733;48.738;9.106;2022-11-20T04:32:09;4.50;99.90
29855;DHT22;16733;48.738;9.106;2022-11-20T04:34:35;4.50;99.90
29855;DHT22;16733;48.738;9.106;2022-11-20T04:37:00;4.50;99.90
29855;DHT22;16733;48.738;9.106;2022-11-20T04:39:26;4.50;99.90
29855;DHT22;16733;48.738;9.106;2022-11-20T04:41:52;4.60;99.90
29855;DHT22;16733;48.738;9.106;2022-11-20T04:44:36;4.60;99.90
29855;DHT22;16733;48.738;9.106;2022-11-20T04:47:01;4.60;99.90
29855;DHT22;16733;48.738;9.106;2022-11-20T04:49:30;4.60;99.90
29855;DHT22;16733;48.738;9.106;2022-11-20T04:51:57;4.60;99.90
29855;DHT22;16733;48.738;9.106;2022-11-20T04:54:22;4.60;99.90
29855;DHT22;16733;48.738;9.106;2022-11-20T04:56:48;4.70;99.90
29855;DHT22;16733;48.738;9.106;2022-11-20T04:59:14;4.70;99.90
29855;DHT22;16733;48.738;9.106;2022-11-20T05:01:40;4.70;99.90
29855;DHT22;16733;48.738;9.106;2022-11-20T05:04:05;4.80;99.90
29855;DHT22;16733;48.738;9.106;2022-11-20T05:06:31;4.80;99.90
29855;DHT22;16733;48.738;9.106;2022-11-20T05:08:57;4.90;99.90
29855;DHT22;16733;48.738;9.106;2022-11-20T05:11:23;4.90;99.90
29855;DHT22;16733;48.738;9.106;2022-11-20T05:13:50;4.90;99.90
29855;DHT22;16733;48.738;9.106;2022-11-20T05:16:18;4.90;99.90
29855;DHT22;16733;48.738;9.106;2022-11-20T05:18:43;4.90;99.90
29855;DHT22;16733;48.738;9.106;2022-11-20T05:21:10;5.00;99.90
29855;DHT22;16733;48.738;9.106;2022-11-20T05:23:37;5.00;99.90
29855;DHT22;16733;48.738;9.106;2022-11-20T05:26:04;5.00;99.90
29855;DHT22;16733;48.738;9.106;2022-11-20T05:28:31;5.00;99.90
29855;DHT22;16733;48.738;9.106;2022-11-20T05:31:03;5.00;99.90
29855;DHT22;16733;48.738;9.106;2022-11-20T05:33:29;5.10;99.90
29855;DHT22;16733;48.738;9.106;2022-11-20T05:35:58;5.10;99.90
29855;DHT22;16733;48.738;9.106;2022-11-20T05:38:23;5.10;99.90
29855;DHT22;16733;48.738;9.106;2022-11-20T05:40:49;5.10;99.90
29855;DHT22;16733;48.738;9.106;2022-11-20T05:43:14;5.20;99.90
29855;DHT22;16733;48.738;9.106;2022-11-20T05:45:40;5.20;99.90
29855;DHT22;16733;48.738;9.106;2022-11-20T05:48:05;5.20;99.90
29855;DHT22;16733;48.738;9.106;2022-11-20T05:50:31;5.20;99.90
29855;DHT22;16733;48.738;9.106;2022-11-20T05:53:00;5.30;99.90
29855;DHT22;16733;48.738;9.106;2022-11-20T05:55:26;5.30;99.90
29855;DHT22;16733;48.738;9.106;2022-11-20T05:57:53;5.30;99.90
29855;DHT22;16733;48.738;9.106;2022-11-20T06:00:20;5.30;99.90
29855;DHT22;16733;48.738;9.106;2022-11-20T06:02:46;5.30;99.90
29855;DHT22;16733;48.738;9.106;2022-11-20T06:05:11;5.30;99.90
29855;DHT22;16733;48.738;9.106;2022-11-20T06:07:37;5.30;99.90
29855;DHT22;16733;48.738;9.106;2022-11-20T06:10:02;5.30;99.90
29855;DHT22;16733;48.738;9.106;2022-11-20T06:12:28;5.30;99.90
29855;DHT22;16733;48.738;9.106;2022-11-20T06:14:53;5.30;99.90
29855;DHT22;16733;48.738;9.106;2022-11-20T06:17:19;5.30;99.90
29855;DHT22;16733;48.738;9.106;2022-11-20T06:19:45;5.30;99.90
29855;DHT22;16733;48.738;9.106;2022-11-20T06:22:10;5.30;99.90
29855;DHT22;16733;48.738;9.106;2022-11-20T06:24:36;5.30;99.90
29855;DHT22;16733;48.738;9.106;2022-11-20T06:27:01;5.30;99.90
29855;DHT22;16733;48.738;9.106;2022-11-20T06:29:27;5.40;99.90
29855;DHT22;16733;48.738;9.106;2022-11-20T06:31:54;5.40;99.90
29855;DHT22;16733;48.738;9.106;2022-11-20T06:34:19;5.40;99.90
29855;DHT22;16733;48.738;9.106;2022-11-20T06:36:45;5.40;99.90
29855;DHT22;16733;48.738;9.106;2022-11-20T06:39:10;5.40;99.90
29855;DHT22;16733;48.738;9.106;2022-11-20T06:41:36;5.40;99.90
29855;DHT22;16733;48.738;9.106;2022-11-20T06:44:04;5.40;99.90
29855;DHT22;16733;48.738;9.106;2022-11-20T06:46:29;5.40;99.90
29855;DHT22;16733;48.738;9.106;2022-11-20T06:48:55;5.40;99.90
29855;DHT22;16733;48.738;9.106;2022-11-20T06:51:20;5.40;99.90
29855;DHT22;16733;48.738;9.106;2022-11-20T06:53:46;5.40;99.90
29855;DHT22;16733;48.738;9.106;2022-11-20T06:56:12;5.40;99.90
29855;DHT22;16733;48.738;9.106;2022-11-20T06:58:37;5.40;99.90
29855;DHT22;16733;48.738;9.106;2022-11-20T07:01:09;5.40;99.90
29855;DHT22;16733;48.738;9.106;2022-11-20T07:03:36;5.40;99.90
29855;DHT22;16733;48.738;9.106;2022-11-20T07:06:02;5.40;99.90
29855;DHT22;16733;48.738;9.106;2022-11-20T07:08:29;5.40;99.90
29855;DHT22;16733;48.738;9.106;2022-11-20T07:11:10;5.40;99.90
29855;DHT22;16733;48.738;9.106;2022-11-20T07:13:36;5.40;99.90
29855;DHT22;16733;48.738;9.106;2022-11-20T07:16:05;5.40;99.90
29855;DHT22;16733;48.738;9.106;2022-11-20T07:18:31;5.40;99.90
29855;DHT22;16733;48.738;9.106;2022-11-20T07:21:00;5.40;99.90
29855;DHT22;16733;48.738;9.106;2022-11-20T07:23:26;5.40;99.90
29855;DHT22;16733;48.738;9.106;2022-11-20T07:25:51;5.40;99.90
29855;DHT22;16733;48.738;9.106;2022-11-20T07:28:17;5.40;99.90
29855;DHT22;16733;48.738;9.106;2022-11-20T07:30:42;5.40;99.90
29855;DHT22;16733;48.738;9.106;2022-11-20T07:33:08;5.50;99.90
29855;DHT22;16733;48.738;9.106;2022-11-20T07:35:33;5.40;99.90
29855;DHT22;16733;48.738;9.106;2022-11-20T07:37:59;5.50;99.90
29855;DHT22;16733;48.738;9.106;2022-11-20T07:40:24;5.50;99.90
29855;DHT22;16733;48.738;9.106;2022-11-20T07:42:51;5.50;99.90
29855;DHT22;16733;48.738;9.106;2022-11-20T07:45:18;5.50;99.90
29855;DHT22;16733;48.738;9.106;2022-11-20T07:47:44;5.50;99.90
29855;DHT22;16733;48.738;9.106;2022-11-20T07:50:10;5.40;99.90
29855;DHT22;16733;48.738;9.106;2022-11-20T07:52:36;5.50;99.90
29855;DHT22;16733;48.738;9.106;2022-11-20T07:55:01;5.50;99.90
29855;DHT22;16733;48.738;9.106;2022-11-20T07:57:27;5.60;99.90
29855;DHT22;16733;48.738;9.106;2022-11-20T07:59:52;5.60;99.90
29855;DHT22;16733;48.738;9.106;2022-11-20T08:02:18;5.70;99.90
29855;DHT22;16733;48.738;9.106;2022-11-20T08:04:44;5.70;99.90
29855;DHT22;16733;48.738;9.106;2022-11-20T08:07:09;5.80;99.90
29855;DHT22;16733;48.738;9.106;2022-11-20T08:09:35;5.80;99.90
29855;DHT22;16733;48.738;9.106;2022-11-20T08:12:00;5.90;99.90
29855;DHT22;16733;48.738;9.106;2022-11-20T08:14:44;5.90;99.90
29855;DHT22;16733;48.738;9.106;2022-11-20T08:17:10;6.00;99.90
29855;DHT22;16733;48.738;9.106;2022-11-20T08:19:35;6.00;99.90
29855;DHT22;16733;48.738;9.106;2022-11-20T08:22:01;6.10;99.90
29855;DHT22;16733;48.738;9.106;2022-11-20T08:24:26;6.10;99.90
29855;DHT22;16733;48.738;9.106;2022-11-20T08:26:52;6.20;99.90
29855;DHT22;16733;48.738;9.106;2022-11-20T08:29:18;6.20;99.90
29855;DHT22;16733;48.738;9.106;2022-11-20T08:31:44;6.20;99.90
29855;DHT22;16733;48.738;9.106;2022-11-20T08:34:09;6.20;99.90
29855;DHT22;16733;48.738;9.106;2022-11-20T08:36:36;6.30;99.90
29855;DHT22;16733;48.738;9.106;2022-11-20T08:39:02;6.30;99.90
29855;DHT22;16733;48.738;9.106;2022-11-20T08:41:29;6.30;99.90
29855;DHT22;16733;48.738;9.106;2022-11-20T08:44:03;6.30;99.90
29855;DHT22;16733;48.738;9.106;2022-11-20T08:46:37;6.40;99.90
29855;DHT22;16733;48.738;9.106;2022-11-20T08:49:04;6.50;99.90
29855;DHT22;16733;48.738;9.106;2022-11-20T08:51:30;6.60;99.90
29855;DHT22;16733;48.738;9.106;2022-11-20T08:53:55;6.60;99.90
29855;DHT22;16733;48.738;9.106;2022-11-20T08:56:21;6.60;99.90
29855;DHT22;16733;48.738;9.106;2022-11-20T08:58:46;6.70;99.90
29855;DHT22;16733;48.738;9.106;2022-11-20T09:01:12;6.80;99.90
29855;DHT22;16733;48.738;9.106;2022-11-20T09:03:38;6.80;99.90
29855;DHT22;16733;48.738;9.106;2022-11-20T09:06:06;6.90;99.90
29855;DHT22;16733;48.738;9.106;2022-11-20T09:08:32;6.90;99.90
29855;DHT22;16733;48.738;9.106;2022-11-20T09:10:58;6.90;99.90
29855;DHT22;16733;48.738;9.106;2022-11-20T09:13:25;6.80;99.90
29855;DHT22;16733;48.738;9.106;2022-11-20T09:16:00;6.70;99.90
29855;DHT22;16733;48.738;9.106;2022-11-20T09:18:27;6.70;99.90
29855;DHT22;16733;48.738;9.106;2022-11-20T09:21:01;6.60;99.90
29855;DHT22;16733;48.738;9.106;2022-11-20T09:23:30;6.60;99.90
29855;DHT22;16733;48.738;9.106;2022-11-20T09:25:56;6.60;99.90
29855;DHT22;16733;48.738;9.106;2022-11-20T09:28:25;6.70;99.90
29855;DHT22;16733;48.738;9.106;2022-11-20T09:30:51;6.70;99.90
29855;DHT22;16733;48.738;9.106;2022-11-20T09:33:17;6.70;99.90
29855;DHT22;16733;48.738;9.106;2022-11-20T09:35:43;6.70;99.90
29855;DHT22;16733;48.738;9.106;2022-11-20T09:38:09;6.70;99.90
29855;DHT22;16733;48.738;9.106;2022-11-20T09:40:39;6.70;99.90
29855;DHT22;16733;48.738;9.106;2022-11-20T09:56:46;6.60;99.90
29855;DHT22;16733;48.738;9.106;2022-11-20T10:02:03;6.70;99.90
29855;DHT22;16733;48.738;9.106;2022-11-20T10:04:36;6.70;99.90
29855;DHT22;16733;48.738;9.106;2022-11-20T10:07:15;6.70;99.90
29855;DHT22;16733;48.738;9.106;2022-11-20T10:09:52;6.60;99.90
29855;DHT22;16733;48.738;9.106;2022-11-20T10:12:27;6.50;99.90
29855;DHT22;16733;48.738;9.106;2022-11-20T10:15:16;6.40;99.90
29855;DHT22;16733;48.738;9.106;2022-11-20T10:24:12;6.30;99.90
29855;DHT22;16733;48.738;9.106;2022-11-20T10:29:17;6.30;99.90
29855;DHT22;16733;48.738;9.106;2022-11-20T10:31:59;6.30;99.90
29855;DHT22;16733;48.738;9.106;2022-11-20T10:34:51;6.20;99.90
29855;DHT22;16733;48.738;9.106;2022-11-20T10:37:26;6.20;99.90
29855;DHT22;16733;48.738;9.106;2022-11-20T10:48:01;6.10;99.90
29855;DHT22;16733;48.738;9.106;2022-11-20T10:50:35;6.10;99.90
29855;DHT22;16733;48.738;9.106;2022-11-20T10:53:15;6.10;99.90
29855;DHT22;16733;48.738;9.106;2022-11-20T10:55:54;6.10;99.90
29855;DHT22;16733;48.738;9.106;2022-11-20T11:01:11;6.10;99.90
29855;DHT22;16733;48.738;9.106;2022-11-20T11:03:38;6.10;99.90
29855;DHT22;16733;48.738;9.106;2022-11-20T11:06:08;6.20;99.90
29855;DHT22;16733;48.738;9.106;2022-11-20T11:08:38;6.20;99.90
29855;DHT22;16733;48.738;9.106;2022-11-20T11:11:44;6.20;99.90
29855;DHT22;16733;48.738;9.106;2022-11-20T11:14:11;6.30;99.90
29855;DHT22;16733;48.738;9.106;2022-11-20T11:16:52;6.30;99.90
29855;DHT22;16733;48.738;9.106;2022-11-20T11:19:19;6.30;99.90
29855;DHT22;16733;48.738;9.106;2022-11-20T11:24:23;6.50;99.90
29855;DHT22;16733;48.738;9.106;2022-11-20T11:27:02;6.50;99.90
29855;DHT22;16733;48.738;9.106;2022-11-20T11:29:32;6.60;99.90
29855;DHT22;16733;48.738;9.106;2022-11-20T11:32:22;6.70;99.90
29855;DHT22;16733;48.738;9.106;2022-11-20T11:35:07;6.80;99.90
29855;DHT22;16733;48.738;9.106;2022-11-20T11:37:43;7.00;99.90
29855;DHT22;16733;48.738;9.106;2022-11-20T11:40:11;7.20;99.90
29855;DHT22;16733;48.738;9.106;2022-11-20T11:43:04;7.30;99.90
29855;DHT22;16733;48.738;9.106;2022-11-20T11:45:28;7.50;99.90
29855;DHT22;16733;48.738;9.106;2022-11-20T11:47:56;7.60;99.90
29855;DHT22;16733;48.738;9.106;2022-11-20T11:50:25;7.80;99.90
29855;DHT22;16733;48.738;9.106;2022-11-20T11:53:12;8.00;99.90
29855;DHT22;16733;48.738;9.106;2022-11-20T12:00:56;8.70;99.90
29855;DHT22;16733;48.738;9.106;2022-11-20T12:03:34;8.70;99.90
29855;DHT22;16733;48.738;9.106;2022-11-20T12:06:05;8.80;99.90
29855;DHT22;16733;48.738;9.106;2022-11-20T12:08:44;8.70;99.90
29855;DHT22;16733;48.738;9.106;2022-11-20T12:11:31;8.70;99.90
29855;DHT22;16733;48.738;9.106;2022-11-20T12:16:34;8.60;99.90
29855;DHT22;16733;48.738;9.106;2022-11-20T12:19:01;8.60;99.90
29855;DHT22;16733;48.738;9.106;2022-11-20T12:21:47;8.50;99.90
29855;DHT22;16733;48.738;9.106;2022-11-20T12:41:16;8.30;99.90
29855;DHT22;16733;48.738;9.106;2022-11-20T12:53:33;8.00;99.90
29855;DHT22;16733;48.738;9.106;2022-11-20T13:01:32;8.00;99.90
29855;DHT22;16733;48.738;9.106;2022-11-20T13:07:12;7.80;99.90
29855;DHT22;16733;48.738;9.106;2022-11-20T13:09:51;7.80;99.90
29855;DHT22;16733;48.738;9.106;2022-11-20T13:17:55;7.80;99.90
29855;DHT22;16733;48.738;9.106;2022-11-20T13:20:21;7.80;99.90
29855;DHT22;16733;48.738;9.106;2022-11-20T13:22:51;7.80;99.90
29855;DHT22;16733;48.738;9.106;2022-11-20T13:25:31;7.80;99.90
29855;DHT22;16733;48.738;9.106;2022-11-20T13:27:59;7.70;99.90
29855;DHT22;16733;48.738;9.106;2022-11-20T13:30:30;7.70;99.90
29855;DHT22;16733;48.738;9.106;2022-11-20T13:33:03;7.70;99.90
29855;DHT22;16733;48.738;9.106;2022-11-20T13:35:42;7.70;99.90
29855;DHT22;16733;48.738;9.106;2022-11-20T13:38:10;7.70;99.90
29855;DHT22;16733;48.738;9.106;2022-11-20T13:40:50;7.70;99.90
29855;DHT22;16733;48.738;9.106;2022-11-20T13:43:18;7.70;99.90
29855;DHT22;16733;48.738;9.106;2022-11-20T13:46:02;7.70;99.90
29855;DHT22;16733;48.738;9.106;2022-11-20T13:48:39;7.80;99.90
29855;DHT22;16733;48.738;9.106;2022-11-20T13:54:19;7.80;99.90
29855;DHT22;16733;48.738;9.106;2022-11-20T14:02:17;7.70;99.90
29855;DHT22;16733;48.738;9.106;2022-11-20T14:04:49;7.60;99.90
29855;DHT22;16733;48.738;9.106;2022-11-20T14:07:19;7.60;99.90
29855;DHT22;16733;48.738;9.106;2022-11-20T14:09:56;7.50;99.90
29855;DHT22;16733;48.738;9.106;2022-11-20T14:12:28;7.50;99.90
29855;DHT22;16733;48.738;9.106;2022-11-20T14:14:54;7.50;99.90
29855;DHT22;16733;48.738;9.106;2022-11-20T14:17:28;7.50;99.90
29855;DHT22;16733;48.738;9.106;2022-11-20T14:19:58;7.50;99.90
29855;DHT22;16733;48.738;9.106;2022-11-20T14:22:26;7.40;99.90
29855;DHT22;16733;48.738;9.106;2022-11-20T14:27:38;7.40;99.90
29855;DHT22;16733;48.738;9.106;2022-11-20T14:30:06;7.30;99.90
29855;DHT22;16733;48.738;9.106;2022-11-20T14:32:36;7.30;99.90
29855;DHT22;16733;48.738;9.106;2022-11-20T14:35:08;7.30;99.90
29855;DHT22;16733;48.738;9.106;2022-11-20T14:37:36;7.20;99.90
29855;DHT22;16733;48.738;9.106;2022-11-20T14:40:05;7.20;99.90
29855;DHT22;16733;48.738;9.106;2022-11-20T14:42:31;7.20;99.90
29855;DHT22;16733;48.738;9.106;2022-11-20T14:44:58;7.20;99.90
29855;DHT22;16733;48.738;9.106;2022-11-20T14:47:26;7.20;99.90
29855;DHT22;16733;48.738;9.106;2022-11-20T14:49:54;7.20;99.90
29855;DHT22;16733;48.738;9.106;2022-11-20T14:52:22;7.20;99.90
29855;DHT22;16733;48.738;9.106;2022-11-20T14:54:57;7.20;99.90
29855;DHT22;16733;48.738;9.106;2022-11-20T15:02:46;7.10;99.90
29855;DHT22;16733;48.738;9.106;2022-11-20T15:05:13;7.10;99.90
29855;DHT22;16733;48.738;9.106;2022-11-20T15:07:42;7.10;99.90
29855;DHT22;16733;48.738;9.106;2022-11-20T15:12:53;7.00;99.90
29855;DHT22;16733;48.738;9.106;2022-11-20T15:15:40;7.00;99.90
29855;DHT22;16733;48.738;9.106;2022-11-20T15:18:25;6.90;99.90
29855;DHT22;16733;48.738;9.106;2022-11-20T15:20:54;6.90;99.90
29855;DHT22;16733;48.738;9.106;2022-11-20T15:23:20;6.80;99.90
29855;DHT22;16733;48.738;9.106;2022-11-20T15:25:46;6.80;99.90
29855;DHT22;16733;48.738;9.106;2022-11-20T15:28:19;6.70;99.90
29855;DHT22;16733;48.738;9.106;2022-11-20T15:30:46;6.70;99.90
29855;DHT22;16733;48.738;9.106;2022-11-20T15:33:13;6.70;99.90
29855;DHT22;16733;48.738;9.106;2022-11-20T15:35:38;6.60;99.90
29855;DHT22;16733;48.738;9.106;2022-11-20T15:38:04;6.60;99.90
29855;DHT22;16733;48.738;9.106;2022-11-20T15:40:30;6.50;99.90
29855;DHT22;16733;48.738;9.106;2022-11-20T15:42:56;6.50;99.90
29855;DHT22;16733;48.738;9.106;2022-11-20T15:45:46;6.50;99.90
29855;DHT22;16733;48.738;9.106;2022-11-20T15:48:36;6.50;99.90
29855;DHT22;16733;48.738;9.106;2022-11-20T15:53:52;6.40;99.90
29855;DHT22;16733;48.738;9.106;2022-11-20T15:56:18;6.40;99.90
29855;DHT22;16733;48.738;9.106;2022-11-20T15:58:43;6.40;99.90
29855;DHT22;16733;48.738;9.106;2022-11-20T16:01:14;6.40;99.90
29855;DHT22;16733;48.738;9.106;2022-11-20T16:03:40;6.40;99.90
29855;DHT22;16733;48.738;9.106;2022-11-20T16:06:06;6.40;99.90
29855;DHT22;16733;48.738;9.106;2022-11-20T16:08:32;6.30;99.90
29855;DHT22;16733;48.738;9.106;2022-11-20T16:10:58;6.40;99.90
29855;DHT22;16733;48.738;9.106;2022-11-20T16:13:23;6.40;99.90
29855;DHT22;16733;48.738;9.106;2022-11-20T16:16:22;6.30;99.90
29855;DHT22;16733;48.738;9.106;2022-11-20T16:18:49;6.40;99.90
29855;DHT22;16733;48.738;9.106;2022-11-20T16:21:15;6.40;99.90
29855;DHT22;16733;48.738;9.106;2022-11-20T16:23:41;6.30;99.90
29855;DHT22;16733;48.738;9.106;2022-11-20T16:26:15;6.40;99.90
29855;DHT22;16733;48.738;9.106;2022-11-20T16:28:42;6.40;99.90
29855;DHT22;16733;48.738;9.106;2022-11-20T16:31:12;6.40;99.90
29855;DHT22;16733;48.738;9.106;2022-11-20T16:33:38;6.40;99.90
29855;DHT22;16733;48.738;9.106;2022-11-20T16:36:09;6.40;99.90
29855;DHT22;16733;48.738;9.106;2022-11-20T16:38:34;6.40;99.90
29855;DHT22;16733;48.738;9.106;2022-11-20T16:41:01;6.40;99.90
29855;DHT22;16733;48.738;9.106;2022-11-20T16:43:27;6.40;99.90
29855;DHT22;16733;48.738;9.106;2022-11-20T16:45:52;6.40;99.90
29855;DHT22;16733;48.738;9.106;2022-11-20T16:48:18;6.40;99.90
29855;DHT22;16733;48.738;9.106;2022-11-20T16:50:51;6.50;99.90
29855;DHT22;16733;48.738;9.106;2022-11-20T16:53:18;6.50;99.90
29855;DHT22;16733;48.738;9.106;2022-11-20T16:55:45;6.50;99.90
29855;DHT22;16733;48.738;9.106;2022-11-20T16:58:10;6.50;99.90
29855;DHT22;16733;48.738;9.106;2022-11-20T17:00:37;6.50;99.90
29855;DHT22;16733;48.738;9.106;2022-11-20T17:03:04;6.50;99.90
29855;DHT22;16733;48.738;9.106;2022-11-20T17:05:31;6.60;99.90
29855;DHT22;16733;48.738;9.106;2022-11-20T17:07:57;6.60;99.90
29855;DHT22;16733;48.738;9.106;2022-11-20T17:10:22;6.60;99.90
29855;DHT22;16733;48.738;9.106;2022-11-20T17:12:48;6.60;99.90
29855;DHT22;16733;48.738;9.106;2022-11-20T17:15:13;6.60;99.90
29855;DHT22;16733;48.738;9.106;2022-11-20T17:17:39;6.60;99.90
29855;DHT22;16733;48.738;9.106;2022-11-20T17:20:05;6.60;99.90
29855;DHT22;16733;48.738;9.106;2022-11-20T17:22:31;6.60;99.90
29855;DHT22;16733;48.738;9.106;2022-11-20T17:24:57;6.60;99.90
29855;DHT22;16733;48.738;9.106;2022-11-20T17:27:22;6.60;99.90
29855;DHT22;16733;48.738;9.106;2022-11-20T17:29:48;6.60;99.90
29855;DHT22;16733;48.738;9.106;2022-11-20T17:32:13;6.60;99.90
29855;DHT22;16733;48.738;9.106;2022-11-20T17:34:39;6.60;99.90
29855;DHT22;16733;48.738;9.106;2022-11-20T17:37:05;6.60;99.90
29855;DHT22;16733;48.738;9.106;2022-11-20T17:39:31;6.60;99.90
29855;DHT22;16733;48.738;9.106;2022-11-20T17:41:56;6.60;99.90
29855;DHT22;16733;48.738;9.106;2022-11-20T17:44:40;6.60;99.90
29855;DHT22;16733;48.738;9.106;2022-11-20T17:47:07;6.60;99.90